createdAt,value
2019-04-30T00:01:25.132Z,2.27
2019-04-30T00:03:59.453Z,2.80
2019-04-30T00:06:34.549Z,2.93
2019-04-30T00:08:58.774Z,2.70
2019-04-30T00:11:27.522Z,3.37
2019-04-30T00:13:58.790Z,3.03
2019-04-30T00:16:30.952Z,3.03
2019-04-30T00:19:00.739Z,2.43
2019-04-30T00:21:28.537Z,2.93
2019-04-30T00:24:00.832Z,2.60
2019-04-30T00:26:28.034Z,2.40
2019-04-30T00:28:56.685Z,2.27
2019-04-30T00:31:27.423Z,2.80
2019-04-30T00:33:57.849Z,2.40
2019-04-30T00:36:33.875Z,3.47
2019-04-30T00:38:58.077Z,2.93
2019-04-30T00:41:26.883Z,2.27
2019-04-30T00:43:55.606Z,2.73
2019-04-30T00:46:28.725Z,3.30
2019-04-30T00:48:56.770Z,3.03
2019-04-30T00:51:26.205Z,2.70
2019-04-30T00:53:55.810Z,2.43
2019-04-30T00:56:28.182Z,3.23
2019-04-30T00:58:57.796Z,2.53
2019-04-30T01:01:48.600Z,2.80
2019-04-30T01:04:24.478Z,2.70
2019-04-30T01:06:53.290Z,1.90
2019-04-30T01:09:22.034Z,2.30
2019-04-30T01:11:50.763Z,2.40
2019-04-30T01:14:23.247Z,2.37
2019-04-30T01:16:49.911Z,2.30
2019-04-30T01:19:29.686Z,2.30
2019-04-30T01:21:50.965Z,2.43
2019-04-30T01:24:23.373Z,2.80
2019-04-30T01:26:50.785Z,1.63
2019-04-30T01:29:19.526Z,2.47
2019-04-30T01:31:49.281Z,2.07
2019-04-30T01:34:19.581Z,2.87
2019-04-30T01:36:52.242Z,2.27
2019-04-30T01:39:19.606Z,2.50
2019-04-30T01:41:48.908Z,2.60
2019-04-30T01:44:19.497Z,2.93
2019-04-30T01:46:51.715Z,2.73
2019-04-30T01:49:20.287Z,2.30
2019-04-30T01:51:52.894Z,2.90
2019-04-30T01:54:23.970Z,2.50
2019-04-30T01:57:10.916Z,2.87
2019-04-30T01:59:58.287Z,2.90
2019-04-30T02:02:29.880Z,2.70
2019-04-30T02:04:59.216Z,2.53
2019-04-30T02:07:29.335Z,2.43
2019-04-30T02:09:58.774Z,3.67
2019-04-30T02:12:29.501Z,2.30
2019-04-30T02:14:59.683Z,2.83
2019-04-30T02:17:29.331Z,2.07
2019-04-30T02:19:59.244Z,2.20
2019-04-30T02:22:30.900Z,2.63
2019-04-30T02:24:58.953Z,2.90
2019-04-30T02:27:29.443Z,2.50
2019-04-30T02:30:01.955Z,2.50
2019-04-30T02:32:30.541Z,2.40
2019-04-30T02:35:09.590Z,3.00
2019-04-30T02:37:39.968Z,2.83
2019-04-30T02:40:10.381Z,2.30
2019-04-30T02:42:39.860Z,2.20
2019-04-30T02:45:10.387Z,2.90
2019-04-30T02:47:40.023Z,2.20
2019-04-30T02:50:15.207Z,2.70
2019-04-30T02:52:41.212Z,2.27
2019-04-30T02:55:12.961Z,2.80
2019-04-30T02:57:41.665Z,2.60
2019-04-30T03:00:20.355Z,2.43
2019-04-30T03:02:50.567Z,2.00
2019-04-30T03:05:20.216Z,2.00
2019-04-30T03:07:50.407Z,2.57
2019-04-30T03:10:20.466Z,2.60
2019-04-30T03:12:49.932Z,2.67
2019-04-30T03:15:22.318Z,2.30
2019-04-30T03:18:01.347Z,2.37
2019-04-30T03:20:40.049Z,2.50
2019-04-30T03:23:09.826Z,1.93
2019-04-30T03:25:40.529Z,2.50
2019-04-30T03:28:09.787Z,2.30
2019-04-30T03:30:41.992Z,2.50
2019-04-30T03:33:12.880Z,1.97
2019-04-30T03:35:46.623Z,2.80
2019-04-30T03:38:10.943Z,1.90
2019-04-30T03:40:40.535Z,2.03
2019-04-30T03:43:10.350Z,2.00
2019-04-30T03:45:40.190Z,2.27
2019-04-30T03:48:10.154Z,2.60
2019-04-30T03:50:50.356Z,2.60
2019-04-30T03:53:10.393Z,2.23
2019-04-30T03:55:40.146Z,2.90
2019-04-30T03:58:09.462Z,2.50
2019-04-30T04:00:46.749Z,2.80
2019-04-30T04:03:15.491Z,2.30
2019-04-30T04:05:49.861Z,3.17
2019-04-30T04:08:33.230Z,2.53
2019-04-30T04:11:11.797Z,1.90
2019-04-30T04:13:40.681Z,2.50
2019-04-30T04:16:09.760Z,2.37
2019-04-30T04:18:40.213Z,2.40
2019-04-30T04:21:16.401Z,2.00
2019-04-30T04:23:40.038Z,2.27
2019-04-30T04:26:09.453Z,2.72
2019-04-30T04:28:43.127Z,2.62
2019-04-30T04:31:09.567Z,2.17
2019-04-30T04:33:39.579Z,2.47
2019-04-30T04:36:09.200Z,2.20
2019-04-30T04:38:40.236Z,2.50
2019-04-30T04:41:10.400Z,2.65
2019-04-30T04:43:40.178Z,2.95
2019-04-30T04:46:09.418Z,2.47
2019-04-30T04:48:39.397Z,2.80
2019-04-30T04:51:19.826Z,2.87
2019-04-30T04:53:40.219Z,2.90
2019-04-30T04:56:10.188Z,2.42
2019-04-30T04:58:40.239Z,2.42
2019-04-30T05:01:11.701Z,3.30
2019-04-30T05:03:40.080Z,2.50
2019-04-30T05:06:11.664Z,2.53
2019-04-30T05:08:39.938Z,2.70
2019-04-30T05:11:09.590Z,2.98
2019-04-30T05:13:38.926Z,2.45
2019-04-30T05:16:09.268Z,2.60
2019-04-30T05:18:39.144Z,3.27
2019-04-30T05:21:08.831Z,2.30
2019-04-30T05:23:39.605Z,2.42
2019-04-30T05:26:08.425Z,3.20
2019-04-30T05:28:39.354Z,2.75
2019-04-30T05:31:08.794Z,2.22
2019-04-30T05:33:39.084Z,2.50
2019-04-30T05:36:09.354Z,2.60
2019-04-30T05:38:39.172Z,2.98
2019-04-30T05:41:09.309Z,2.60
2019-04-30T05:43:38.739Z,2.72
2019-04-30T05:46:08.356Z,3.17
2019-04-30T05:48:39.724Z,3.60
2019-04-30T05:51:08.986Z,2.47
2019-04-30T05:53:39.423Z,2.45
2019-04-30T05:56:09.411Z,3.00
2019-04-30T05:58:39.781Z,2.60
2019-04-30T06:01:09.713Z,3.13
2019-04-30T06:03:38.997Z,2.87
2019-04-30T06:06:08.805Z,2.50
2019-04-30T06:08:45.305Z,2.85
2019-04-30T06:11:19.239Z,2.50
2019-04-30T06:14:21.273Z,2.37
2019-04-30T06:17:10.857Z,2.30
2019-04-30T06:19:40.134Z,2.52
2019-04-30T06:22:10.924Z,2.62
2019-04-30T06:24:39.886Z,2.80
2019-04-30T06:27:10.779Z,2.67
2019-04-30T06:29:39.965Z,3.33
2019-04-30T06:32:09.025Z,2.80
2019-04-30T06:34:41.636Z,2.52
2019-04-30T06:37:09.806Z,2.40
2019-04-30T06:39:38.782Z,2.70
2019-04-30T06:42:12.600Z,2.27
2019-04-30T06:44:41.654Z,2.75
2019-04-30T06:47:09.427Z,2.55
2019-04-30T06:49:39.379Z,2.50
2019-04-30T06:52:18.195Z,2.10
2019-04-30T06:54:39.716Z,2.33
2019-04-30T06:57:09.759Z,2.27
2019-04-30T06:59:39.726Z,2.05
2019-04-30T07:02:09.376Z,2.40
2019-04-30T07:04:40.148Z,2.62
2019-04-30T07:07:09.265Z,2.15
2019-04-30T07:09:53.189Z,2.60
2019-04-30T07:12:25.608Z,2.35
2019-04-30T07:14:50.945Z,2.55
2019-04-30T07:17:19.722Z,2.37
2019-04-30T07:19:55.684Z,2.10
2019-04-30T07:22:35.831Z,2.08
2019-04-30T07:24:50.742Z,2.27
2019-04-30T07:27:23.906Z,2.25
2019-04-30T07:29:50.329Z,1.95
2019-04-30T07:32:19.775Z,1.87
2019-04-30T07:34:49.541Z,2.40
2019-04-30T07:37:24.112Z,2.52
2019-04-30T07:39:49.302Z,2.20
2019-04-30T07:42:19.215Z,2.25
2019-04-30T07:44:50.196Z,1.92
2019-04-30T07:47:19.429Z,1.90
2019-04-30T07:49:54.907Z,1.98
2019-04-30T07:52:21.635Z,1.90
2019-04-30T07:54:51.909Z,2.08
2019-04-30T07:57:20.875Z,2.42
2019-04-30T07:59:49.996Z,2.12
2019-04-30T08:02:20.762Z,2.05
2019-04-30T08:05:19.853Z,2.12
2019-04-30T08:07:48.980Z,2.10
2019-04-30T08:10:18.791Z,1.80
2019-04-30T08:12:50.524Z,1.90
2019-04-30T08:15:19.806Z,2.03
2019-04-30T08:18:01.859Z,1.80
2019-04-30T08:20:19.876Z,2.22
2019-04-30T08:22:49.436Z,2.00
2019-04-30T08:25:19.743Z,1.52
2019-04-30T08:27:49.500Z,1.87
2019-04-30T08:30:26.248Z,1.70
2019-04-30T08:32:49.934Z,1.77
2019-04-30T08:35:19.798Z,2.08
2019-04-30T08:37:49.692Z,1.70
2019-04-30T08:40:19.286Z,2.30
2019-04-30T08:42:49.542Z,1.55
2019-04-30T08:45:19.695Z,1.57
2019-04-30T08:47:49.337Z,2.15
2019-04-30T08:50:20.116Z,1.70
2019-04-30T08:52:49.961Z,1.80
2019-04-30T08:55:19.753Z,2.65
2019-04-30T08:57:50.200Z,1.50
2019-04-30T09:00:19.607Z,1.50
2019-04-30T09:02:49.176Z,1.67
2019-04-30T09:05:46.730Z,1.67
2019-04-30T09:08:15.738Z,1.93
2019-04-30T09:10:44.855Z,1.65
2019-04-30T09:13:14.127Z,1.70
2019-04-30T09:15:42.917Z,1.60
2019-04-30T09:18:12.615Z,2.52
2019-04-30T09:20:41.625Z,1.60
2019-04-30T09:23:11.271Z,1.85
2019-04-30T09:25:40.102Z,1.57
2019-04-30T09:28:10.585Z,1.57
2019-04-30T09:30:39.255Z,1.70
2019-04-30T09:33:10.912Z,2.00
2019-04-30T09:35:39.517Z,1.55
2019-04-30T09:38:09.157Z,1.20
2019-04-30T09:40:39.912Z,1.55
2019-04-30T09:43:08.867Z,2.05
2019-04-30T09:45:38.509Z,1.80
2019-04-30T09:48:09.425Z,1.72
2019-04-30T09:50:39.197Z,1.50
2019-04-30T09:53:10.010Z,1.70
2019-04-30T09:55:40.300Z,1.40
2019-04-30T09:58:16.922Z,2.08
2019-04-30T10:00:40.346Z,1.62
2019-04-30T10:03:10.497Z,1.57
2019-04-30T10:05:39.554Z,1.87
2019-04-30T10:08:08.232Z,1.40
2019-04-30T10:10:44.135Z,1.35
2019-04-30T10:13:13.241Z,1.70
2019-04-30T10:15:58.815Z,1.82
2019-04-30T10:18:27.510Z,1.70
2019-04-30T10:20:56.289Z,1.75
2019-04-30T10:23:25.187Z,1.77
2019-04-30T10:25:54.428Z,1.90
2019-04-30T10:28:23.339Z,1.87
2019-04-30T10:30:52.353Z,1.55
2019-04-30T10:33:21.370Z,1.35
2019-04-30T10:35:50.713Z,1.77
2019-04-30T10:38:19.574Z,1.32
2019-04-30T10:40:48.808Z,1.55
2019-04-30T10:43:19.800Z,1.80
2019-04-30T10:45:48.663Z,1.77
2019-04-30T10:48:17.776Z,1.27
2019-04-30T10:50:46.693Z,1.30
2019-04-30T10:53:16.196Z,1.72
2019-04-30T10:55:44.879Z,1.50
2019-04-30T10:58:15.447Z,1.50
2019-04-30T11:00:44.295Z,1.55
2019-04-30T11:03:19.806Z,1.87
2019-04-30T11:05:45.198Z,1.60
2019-04-30T11:08:15.994Z,1.50
2019-04-30T11:10:44.780Z,1.40
2019-04-30T11:13:13.937Z,1.45
2019-04-30T11:15:42.973Z,1.60
2019-04-30T11:18:11.710Z,1.50
2019-04-30T11:20:40.814Z,1.42
2019-04-30T11:23:14.619Z,1.40
2019-04-30T11:25:41.670Z,1.62
2019-04-30T11:28:11.781Z,2.10
2019-04-30T11:30:41.569Z,1.80
2019-04-30T11:33:10.752Z,1.63
2019-04-30T11:35:39.562Z,1.47
2019-04-30T11:38:08.358Z,1.75
2019-04-30T11:40:39.804Z,1.42
2019-04-30T11:43:08.485Z,1.50
2019-04-30T11:46:14.422Z,1.77
2019-04-30T11:48:43.129Z,1.57
2019-04-30T11:51:11.999Z,1.85
2019-04-30T11:53:40.848Z,1.90
2019-04-30T11:56:09.540Z,1.50
2019-04-30T11:58:38.939Z,1.55
2019-04-30T12:01:11.373Z,1.90
2019-04-30T12:03:40.369Z,1.60
2019-04-30T12:06:09.132Z,1.52
2019-04-30T12:08:43.228Z,1.50
2019-04-30T12:11:17.245Z,1.67
2019-04-30T12:13:45.945Z,1.65
2019-04-30T12:16:15.383Z,2.42
2019-04-30T12:18:44.234Z,1.42
2019-04-30T12:21:12.914Z,1.52
2019-04-30T12:23:41.648Z,1.52
2019-04-30T12:26:10.694Z,1.85
2019-04-30T12:28:39.802Z,2.10
2019-04-30T12:31:09.865Z,1.50
2019-04-30T12:33:38.786Z,1.70
2019-04-30T12:36:09.046Z,1.60
2019-04-30T12:38:37.973Z,1.92
2019-04-30T12:41:07.171Z,1.67
2019-04-30T12:43:35.898Z,1.90
2019-04-30T12:46:05.686Z,2.02
2019-04-30T12:48:55.055Z,1.90
2019-04-30T12:51:45.524Z,1.75
2019-04-30T12:54:26.463Z,1.60
2019-04-30T12:57:10.808Z,1.77
2019-04-30T12:59:38.240Z,2.17
2019-04-30T13:02:09.016Z,1.60
2019-04-30T13:04:39.363Z,2.30
2019-04-30T13:07:10.675Z,3.95
2019-04-30T13:09:39.916Z,1.95
2019-04-30T13:12:10.690Z,2.10
2019-04-30T13:14:51.329Z,1.65
2019-04-30T13:17:10.407Z,1.50
2019-04-30T13:19:39.119Z,1.77
2019-04-30T13:22:09.077Z,1.87
2019-04-30T13:24:39.919Z,1.75
2019-04-30T13:27:09.544Z,1.92
2019-04-30T13:29:56.372Z,2.05
2019-04-30T13:32:30.066Z,1.77
2019-04-30T13:35:00.961Z,1.87
2019-04-30T13:37:42.017Z,1.50
2019-04-30T13:40:28.575Z,1.52
2019-04-30T13:42:58.282Z,2.02
2019-04-30T13:45:28.805Z,1.85
2019-04-30T13:47:58.870Z,1.65
2019-04-30T13:50:29.213Z,1.80
2019-04-30T13:52:58.802Z,2.22
2019-04-30T13:55:42.707Z,1.90
2019-04-30T13:58:00.966Z,1.87
2019-04-30T14:00:30.630Z,1.72
2019-04-30T14:03:09.557Z,2.00
2019-04-30T14:05:38.485Z,2.10
2019-04-30T14:08:20.023Z,2.08
2019-04-30T14:10:49.375Z,2.10
2019-04-30T14:13:18.788Z,1.82
2019-04-30T14:15:48.048Z,1.90
2019-04-30T14:18:27.975Z,1.70
2019-04-30T14:20:48.039Z,1.85
2019-04-30T14:23:18.500Z,2.10
2019-04-30T14:25:56.315Z,2.08
2019-04-30T14:28:19.157Z,1.67
2019-04-30T14:30:48.146Z,1.35
2019-04-30T14:33:25.620Z,1.50
2019-04-30T14:35:47.440Z,1.70
2019-04-30T14:38:16.561Z,1.83
2019-04-30T14:40:47.099Z,1.60
2019-04-30T14:43:22.216Z,2.10
2019-04-30T14:46:20.476Z,1.75
2019-04-30T14:48:52.507Z,1.45
2019-04-30T14:51:21.410Z,1.83
2019-04-30T14:54:11.398Z,1.77
2019-04-30T14:56:49.407Z,1.87
2019-04-30T14:59:35.854Z,1.72
2019-04-30T15:02:15.719Z,1.72
2019-04-30T15:04:48.730Z,1.47
2019-04-30T15:07:19.373Z,2.02
2019-04-30T15:09:47.938Z,1.67
2019-04-30T15:12:16.720Z,2.22
2019-04-30T15:14:45.517Z,1.90
2019-04-30T15:17:14.297Z,1.90
2019-04-30T15:19:43.381Z,1.80
2019-04-30T15:22:12.125Z,2.00
2019-04-30T15:24:40.806Z,1.82
2019-04-30T15:27:09.618Z,1.80
2019-04-30T15:29:39.174Z,1.52
2019-04-30T15:32:08.729Z,1.72
2019-04-30T15:34:40.820Z,1.72
2019-04-30T15:37:18.723Z,2.10
2019-04-30T15:39:40.501Z,1.80
2019-04-30T15:42:10.419Z,1.40
2019-04-30T15:44:42.591Z,1.72
2019-04-30T15:47:09.968Z,2.02
2019-04-30T15:49:38.912Z,1.75
2019-04-30T15:52:08.973Z,1.52
2019-04-30T15:54:39.222Z,1.15
2019-04-30T15:57:08.899Z,1.82
2019-04-30T15:59:39.596Z,1.63
2019-04-30T16:02:20.466Z,1.80
2019-04-30T16:05:10.595Z,1.52
2019-04-30T16:07:46.367Z,1.70
2019-04-30T16:10:26.291Z,1.85
2019-04-30T16:13:20.403Z,1.77
2019-04-30T16:15:49.241Z,2.02
2019-04-30T16:18:19.550Z,1.87
2019-04-30T16:20:49.846Z,1.72
2019-04-30T16:23:19.183Z,1.45
2019-04-30T16:25:48.415Z,1.57
2019-04-30T16:28:17.317Z,1.70
2019-04-30T16:30:46.172Z,1.60
2019-04-30T16:33:14.920Z,2.02
2019-04-30T16:35:43.779Z,1.95
2019-04-30T16:38:12.446Z,1.65
2019-04-30T16:40:41.480Z,1.77
2019-04-30T16:43:10.407Z,1.90
2019-04-30T16:45:40.108Z,1.96
2019-04-30T16:48:09.847Z,1.77
2019-04-30T16:50:39.897Z,1.87
2019-04-30T16:53:08.584Z,1.57
2019-04-30T16:55:37.262Z,2.15
2019-04-30T16:58:08.809Z,2.12
2019-04-30T17:00:39.216Z,1.90
2019-04-30T17:03:15.042Z,2.10
2019-04-30T17:05:53.161Z,1.70
2019-04-30T17:08:45.225Z,1.92
2019-04-30T17:11:22.141Z,1.85
2019-04-30T17:13:57.332Z,1.75
2019-04-30T17:16:26.244Z,2.05
2019-04-30T17:18:55.018Z,1.93
2019-04-30T17:21:23.965Z,2.00
2019-04-30T17:23:52.720Z,1.85
2019-04-30T17:26:21.462Z,2.15
2019-04-30T17:28:50.525Z,2.15
2019-04-30T17:31:19.164Z,2.05
2019-04-30T17:33:47.870Z,1.77
2019-04-30T17:36:18.676Z,1.82
2019-04-30T17:38:47.414Z,1.90
2019-04-30T17:41:16.633Z,1.57
2019-04-30T17:43:45.638Z,1.90
2019-04-30T17:46:14.354Z,1.90
2019-04-30T17:48:43.215Z,2.00
2019-04-30T17:51:11.964Z,1.70
2019-04-30T17:53:59.734Z,1.65
2019-04-30T17:56:28.547Z,1.60
2019-04-30T17:58:57.533Z,1.30
2019-04-30T18:01:26.538Z,2.30
2019-04-30T18:03:55.254Z,1.92
2019-04-30T18:06:24.302Z,1.57
2019-04-30T18:08:53.238Z,1.72
2019-04-30T18:11:22.443Z,2.12
2019-04-30T18:13:51.469Z,1.77
2019-04-30T18:16:20.602Z,2.17
2019-04-30T18:18:59.228Z,1.95
2019-04-30T18:21:32.361Z,1.98
2019-04-30T18:24:35.506Z,1.75
2019-04-30T18:27:21.000Z,2.23
2019-04-30T18:29:47.707Z,1.90
2019-04-30T18:32:16.569Z,1.65
2019-04-30T18:34:45.287Z,1.77
2019-04-30T18:37:14.504Z,2.37
2019-04-30T18:39:43.306Z,1.50
2019-04-30T18:42:12.298Z,1.60
2019-04-30T18:44:41.582Z,1.90
2019-04-30T18:47:10.325Z,2.17
2019-04-30T18:49:39.486Z,2.33
2019-04-30T18:52:09.246Z,1.92
2019-04-30T18:54:39.703Z,2.05
2019-04-30T18:57:08.338Z,1.77
2019-04-30T18:59:37.015Z,2.05
2019-04-30T19:02:07.824Z,2.20
2019-04-30T19:04:38.916Z,1.85
2019-04-30T19:07:20.151Z,2.00
2019-04-30T19:09:55.653Z,2.42
2019-04-30T19:12:42.778Z,2.47
2019-04-30T19:15:48.776Z,2.77
2019-04-30T19:18:10.812Z,2.10
2019-04-30T19:20:49.597Z,3.00
2019-04-30T19:23:19.104Z,2.05
2019-04-30T19:25:48.600Z,2.05
2019-04-30T19:28:18.851Z,2.52
2019-04-30T19:30:55.952Z,2.43
2019-04-30T19:33:18.489Z,2.80
2019-04-30T19:35:50.347Z,3.30
2019-04-30T19:38:17.847Z,2.90
2019-04-30T19:40:46.569Z,2.50
2019-04-30T19:43:15.329Z,3.58
2019-04-30T19:45:44.013Z,2.60
2019-04-30T19:48:12.746Z,2.95
2019-04-30T19:50:41.656Z,2.73
2019-04-30T19:53:11.119Z,3.85
2019-04-30T19:55:39.780Z,3.70
2019-04-30T19:58:10.663Z,3.65
2019-04-30T20:00:39.624Z,4.97
2019-04-30T20:03:08.964Z,4.00
2019-04-30T20:05:39.397Z,3.42
2019-04-30T20:08:09.028Z,4.53
2019-04-30T20:10:39.882Z,4.05
2019-04-30T20:13:10.567Z,3.30
2019-04-30T20:15:39.322Z,4.03
2019-04-30T20:18:08.969Z,3.00
2019-04-30T20:20:39.843Z,3.30
2019-04-30T20:23:08.738Z,3.47
2019-04-30T20:25:38.219Z,6.73
2019-04-30T20:28:06.971Z,5.15
2019-04-30T20:30:36.514Z,4.42
2019-04-30T20:33:05.286Z,3.87
2019-04-30T20:35:34.059Z,3.80
2019-04-30T20:38:19.951Z,4.97
2019-04-30T20:40:59.616Z,4.35
2019-04-30T20:43:20.561Z,4.45
2019-04-30T20:45:49.825Z,3.87
2019-04-30T20:48:18.884Z,4.10
2019-04-30T20:50:47.651Z,3.77
2019-04-30T20:53:16.443Z,4.12
2019-04-30T20:55:45.259Z,4.20
2019-04-30T20:58:13.958Z,5.35
2019-04-30T21:00:42.862Z,4.20
2019-04-30T21:03:11.810Z,4.37
2019-04-30T21:05:40.569Z,4.80
2019-04-30T21:08:09.433Z,15.88
2019-04-30T21:10:39.672Z,4.37
2019-04-30T21:13:10.925Z,4.25
2019-04-30T21:15:39.576Z,3.80
2019-04-30T21:18:09.492Z,3.70
2019-04-30T21:20:38.805Z,4.07
2019-04-30T21:23:09.406Z,3.98
2019-04-30T21:25:38.780Z,3.37
2019-04-30T21:28:09.666Z,3.22
2019-04-30T21:30:38.665Z,5.87
2019-04-30T21:33:13.848Z,4.00
2019-04-30T21:35:52.330Z,6.62
2019-04-30T21:38:21.270Z,3.85
2019-04-30T21:40:50.373Z,4.25
2019-04-30T21:43:19.458Z,6.78
2019-04-30T21:45:49.384Z,5.22
2019-04-30T21:48:19.181Z,5.20
2019-04-30T21:50:49.747Z,4.87
2019-04-30T21:53:19.568Z,4.85
2019-04-30T21:55:49.706Z,4.70
2019-04-30T21:58:20.410Z,4.87
2019-04-30T22:01:18.034Z,4.15
2019-04-30T22:03:47.438Z,7.70
2019-04-30T22:06:16.324Z,8.00
2019-04-30T22:08:45.614Z,8.03
2019-04-30T22:11:14.673Z,4.67
2019-04-30T22:13:43.905Z,7.55
2019-04-30T22:16:12.730Z,4.42
2019-04-30T22:18:41.846Z,3.87
2019-04-30T22:21:10.701Z,4.50
2019-04-30T22:23:39.445Z,4.15
2019-04-30T22:26:08.617Z,4.30
2019-04-30T22:28:39.152Z,3.87
2019-04-30T22:31:08.644Z,4.17
2019-04-30T22:33:39.197Z,4.62
2019-04-30T22:36:25.388Z,3.10
2019-04-30T22:39:12.050Z,3.12
2019-04-30T22:41:41.145Z,4.10
2019-04-30T22:44:09.871Z,3.62
2019-04-30T22:46:39.388Z,3.80
2019-04-30T22:49:08.449Z,3.17
2019-04-30T22:51:38.977Z,4.10
2019-04-30T22:54:08.031Z,4.22
2019-04-30T22:56:36.702Z,4.60
2019-04-30T22:59:05.399Z,3.98
2019-04-30T23:01:59.546Z,4.20
2019-04-30T23:04:47.330Z,4.10
2019-04-30T23:07:16.121Z,4.03
2019-04-30T23:09:44.810Z,3.67
2019-04-30T23:12:13.585Z,4.42
2019-04-30T23:14:42.404Z,3.65
2019-04-30T23:17:11.440Z,4.33
2019-04-30T23:19:40.405Z,4.12
2019-04-30T23:22:09.102Z,4.15
2019-04-30T23:24:38.008Z,3.58
2019-04-30T23:27:06.666Z,3.55
2019-04-30T23:29:35.621Z,4.10
2019-04-30T23:32:04.782Z,4.00
2019-04-30T23:34:33.457Z,3.12
2019-04-30T23:37:02.290Z,3.80
2019-04-30T23:39:30.953Z,3.60
2019-04-30T23:41:59.655Z,3.87
2019-04-30T23:44:28.765Z,3.30
2019-04-30T23:46:57.679Z,4.33
2019-04-30T23:49:26.350Z,4.30
2019-04-30T23:51:55.100Z,4.47
2019-04-30T23:54:23.881Z,3.65
2019-04-30T23:56:52.879Z,4.87
2019-04-30T23:59:22.007Z,3.92
